Time;durP1;ratioP1;P1;durP2;ratioP2;P2;SDS_P1;SDS_P2;PMS_P1;PMS_P2;Temp;Humidity;BMP_temperature;BMP_pressure;BME280_temperature;BME280_humidity;BME280_pressure;Samples;Min_cycle;Max_cycle;Signal;HPM_P1;HPM_P2
2022/11/23 00:02:08;;;;;;;26.42;16.02;;;;;;;7.57;100.00;99298.56;5010903;28;20482;-60
2022/11/23 00:04:33;;;;;;;25.08;15.50;;;;;;;7.60;100.00;99309.75;5009512;28;20042;-60
2022/11/23 00:06:59;;;;;;;24.52;15.50;;;;;;;7.26;100.00;99250.22;5010722;28;20478;-61
2022/11/23 00:09:24;;;;;;;28.35;16.30;;;;;;;7.63;100.00;99317.50;5010589;28;20038;-61
2022/11/23 00:11:49;;;;;;;28.63;16.25;;;;;;;7.67;100.00;99311.22;5010668;28;20038;-60
2022/11/23 00:14:14;;;;;;;28.05;16.45;;;;;;;7.30;100.00;99257.00;5010876;28;20382;-61
2022/11/23 00:16:40;;;;;;;26.05;15.20;;;;;;;7.67;100.00;99316.44;5010515;28;20065;-61
2022/11/23 00:19:05;;;;;;;26.48;15.63;;;;;;;7.61;100.00;99302.78;5010618;28;20034;-61
2022/11/23 00:21:31;;;;;;;24.67;15.40;;;;;;;7.64;100.00;99313.09;5010463;28;20042;-62
2022/11/23 00:23:57;;;;;;;27.95;15.48;;;;;;;7.65;100.00;99306.94;5008736;28;20036;-60
2022/11/23 00:26:22;;;;;;;24.85;15.43;;;;;;;7.62;100.00;99304.44;5008867;28;20042;-61
2022/11/23 00:28:48;;;;;;;22.25;14.48;;;;;;;7.72;100.00;99311.84;5010618;28;20044;-61
2022/11/23 00:31:16;;;;;;;24.73;13.55;;;;;;;7.38;100.00;99256.66;5025743;28;20049;-61
2022/11/23 00:33:42;;;;;;;23.48;14.55;;;;;;;7.38;100.00;99257.50;5010267;28;20382;-60
2022/11/23 00:36:12;;;;;;;27.27;14.98;;;;;;;7.59;100.00;99300.19;5010225;28;20153;-62
2022/11/23 00:38:38;;;;;;;29.00;14.55;;;;;;;7.33;100.00;99258.63;5009028;28;20036;-59
2022/11/23 00:41:06;;;;;;;24.23;14.52;;;;;;;7.77;100.00;99336.06;5008704;28;20079;-60
2022/11/23 00:43:31;;;;;;;23.83;13.75;;;;;;;7.39;100.00;99258.34;5009968;28;20039;-62
2022/11/23 00:46:11;;;;;;;25.45;14.73;;;;;;;7.81;100.00;99335.00;5010128;28;20042;-59
2022/11/23 00:48:37;;;;;;;22.80;13.57;;;;;;;7.43;100.00;99265.16;5009939;28;20118;-61
2022/11/23 00:51:04;;;;;;;24.15;15.27;;;;;;;7.57;100.00;99294.19;5009954;28;20068;-60
2022/11/23 00:53:29;;;;;;;18.58;13.60;;;;;;;7.85;100.00;99335.72;5009870;28;20044;-61
2022/11/23 00:55:55;;;;;;;21.23;13.88;;;;;;;7.51;100.00;99280.50;5010056;28;20100;-59
2022/11/23 00:58:20;;;;;;;20.25;14.32;;;;;;;7.82;100.00;99328.00;5008739;28;20113;-61
2022/11/23 01:00:46;;;;;;;24.75;13.70;;;;;;;7.87;100.00;99333.88;5024585;28;20401;-59
2022/11/23 01:03:11;;;;;;;22.40;14.30;;;;;;;7.53;100.00;99273.47;5009508;28;20034;-63
2022/11/23 01:05:37;;;;;;;18.83;13.40;;;;;;;7.56;100.00;99274.16;5009620;28;20383;-60
2022/11/23 01:08:03;;;;;;;21.92;14.82;;;;;;;7.88;100.00;99330.34;5008349;28;20551;-60
2022/11/23 01:10:29;;;;;;;24.15;14.02;;;;;;;7.88;100.00;99333.78;5009983;28;20557;-62
2022/11/23 01:12:54;;;;;;;22.02;14.88;;;;;;;7.50;100.00;99281.44;5009815;28;20034;-61
2022/11/23 01:15:19;;;;;;;19.88;13.80;;;;;;;7.47;100.00;99271.13;5009557;28;20029;-59
2022/11/23 01:17:45;;;;;;;21.95;14.02;;;;;;;7.83;100.00;99343.63;5008340;28;20037;-59
2022/11/23 01:20:10;;;;;;;25.13;14.45;;;;;;;7.66;100.00;99312.13;5009414;28;20062;-61
2022/11/23 01:22:35;;;;;;;25.83;15.18;;;;;;;7.48;100.00;99280.66;5008079;28;20117;-62
2022/11/23 01:25:01;;;;;;;28.40;14.32;;;;;;;7.85;100.00;99339.16;5009582;28;20068;-60
2022/11/23 01:27:26;;;;;;;19.25;14.70;;;;;;;7.59;100.00;99283.66;5009527;28;20110;-60
2022/11/23 01:29:51;;;;;;;29.48;15.23;;;;;;;7.55;100.00;99282.94;5009403;28;20038;-60
2022/11/23 01:32:17;;;;;;;26.50;15.15;;;;;;;7.88;100.00;99348.69;5009192;28;20049;-61
2022/11/23 01:34:42;;;;;;;26.02;15.80;;;;;;;7.87;100.00;99354.84;5009315;28;20084;-60
2022/11/23 01:37:07;;;;;;;26.65;16.35;;;;;;;7.86;100.00;99340.03;5008075;28;20526;-60
2022/11/23 01:39:32;;;;;;;24.92;15.82;;;;;;;7.59;100.00;99297.59;5008809;28;20125;-62
2022/11/23 01:41:58;;;;;;;24.35;16.23;;;;;;;7.71;100.00;99319.75;5009463;28;20038;-61
2022/11/23 01:44:32;;;;;;;27.45;16.48;;;;;;;7.77;100.00;99337.81;5009321;28;20176;-61
2022/11/23 01:46:59;;;;;;;28.48;14.55;;;;;;;7.57;100.00;99309.03;5009189;28;20042;-60
2022/11/23 01:49:27;;;;;;;23.90;15.82;;;;;;;7.81;100.00;99352.50;5009102;28;20026;-62
2022/11/23 01:51:55;;;;;;;28.98;15.52;;;;;;;7.78;100.00;99344.75;5007753;28;20034;-62
2022/11/23 01:54:27;;;;;;;29.35;16.02;;;;;;;7.84;100.00;99350.59;5009123;28;20121;-60
2022/11/23 01:57:02;;;;;;;30.33;16.92;;;;;;;7.80;100.00;99345.53;5024081;28;20563;-60
2022/11/23 01:59:29;;;;;;;24.70;15.48;;;;;;;7.78;100.00;99352.63;5009173;28;20544;-59
2022/11/23 02:01:54;;;;;;;25.50;14.57;;;;;;;7.55;100.00;99303.91;5008801;28;20048;-61
2022/11/23 02:04:22;;;;;;;25.88;14.10;;;;;;;7.42;100.00;99287.00;5007567;28;20038;-60
2022/11/23 02:06:48;;;;;;;23.70;12.55;;;;;;;7.76;100.00;99354.47;5024128;28;20029;-60
2022/11/23 02:09:15;;;;;;;21.50;12.07;;;;;;;7.75;100.00;99339.66;5007826;28;20041;-60
2022/11/23 02:11:40;;;;;;;24.08;12.30;;;;;;;7.59;100.00;99315.09;5007559;28;20087;-59
2022/11/23 02:14:06;;;;;;;20.85;11.30;;;;;;;7.89;100.00;99366.09;4991182;28;20030;-61
2022/11/23 02:16:32;;;;;;;25.05;11.60;;;;;;;7.84;100.00;99366.31;5024031;28;20034;-63
2022/11/23 02:18:57;;;;;;;22.38;11.63;;;;;;;7.59;100.00;99321.16;5008653;28;20033;-63
2022/11/23 02:21:22;;;;;;;20.92;11.25;;;;;;;7.80;100.00;99367.34;5008793;28;20038;-61
2022/11/23 02:24:11;;;;;;;20.30;10.68;;;;;;;7.79;100.00;99377.91;5023923;28;20034;-62
2022/11/23 02:26:37;;;;;;;17.27;9.93;;;;;;;7.75;100.00;99371.94;5007395;28;20420;-60
2022/11/23 02:29:10;;;;;;;19.10;10.00;;;;;;;7.79;100.00;99368.25;5007459;28;20126;-60
2022/11/23 02:31:35;;;;;;;20.33;10.48;;;;;;;7.47;100.00;99306.00;5007345;28;20053;-59
2022/11/23 02:34:01;;;;;;;19.95;9.50;;;;;;;7.73;100.00;99362.47;5007406;28;20427;-61
2022/11/23 02:36:41;;;;;;;24.08;11.43;;;;;;;7.68;100.00;99365.25;5007109;28;20127;-61
2022/11/23 02:39:09;;;;;;;19.90;10.60;;;;;;;7.58;100.00;99363.97;5007413;28;20109;-61
2022/11/23 02:41:40;;;;;;;18.75;9.20;;;;;;;7.11;100.00;99305.81;5008403;28;20034;-61
2022/11/23 02:44:12;;;;;;;27.42;12.38;;;;;;;7.34;100.00;99359.78;5023650;28;20069;-61
2022/11/23 02:46:38;;;;;;;25.55;11.13;;;;;;;6.99;100.00;99302.88;5008554;28;20436;-62
2022/11/23 02:49:03;;;;;;;25.02;12.10;;;;;;;7.26;100.00;99362.75;5011222;28;20041;-61
2022/11/23 02:51:28;;;;;;;24.58;12.30;;;;;;;7.18;100.00;99384.94;5011649;28;20034;-60
2022/11/23 02:53:54;;;;;;;22.25;12.10;;;;;;;7.21;100.00;99376.91;5011788;28;20038;-62
2022/11/23 02:56:19;;;;;;;20.08;12.57;;;;;;;7.25;100.00;99378.50;5011490;28;20046;-62
2022/11/23 02:58:44;;;;;;;24.75;13.88;;;;;;;7.15;100.00;99364.13;5011630;28;20529;-62
2022/11/23 03:01:09;;;;;;;20.92;12.60;;;;;;;7.26;100.00;99377.59;5011488;28;20046;-60
2022/11/23 03:03:35;;;;;;;24.77;12.90;;;;;;;7.32;100.00;99374.72;5011335;28;20038;-62
2022/11/23 03:06:00;;;;;;;22.80;14.45;;;;;;;7.34;100.00;99378.13;5011424;28;20030;-61
2022/11/23 03:08:25;;;;;;;22.73;14.23;;;;;;;7.27;100.00;99374.91;5011511;28;20371;-60
2022/11/23 03:10:51;;;;;;;26.05;13.85;;;;;;;7.12;100.00;99330.22;5011453;28;20431;-61
2022/11/23 03:13:16;;;;;;;24.88;14.90;;;;;;;7.41;100.00;99383.94;5011025;28;20050;-61
2022/11/23 03:15:41;;;;;;;22.05;14.85;;;;;;;7.00;100.00;99300.19;5011522;28;20092;-60
2022/11/23 03:18:06;;;;;;;23.58;14.70;;;;;;;7.13;100.00;99311.84;5011258;28;20038;-61
2022/11/23 03:20:32;;;;;;;22.08;15.40;;;;;;;7.43;100.00;99361.16;5011338;28;20034;-62
2022/11/23 03:22:57;;;;;;;24.35;14.57;;;;;;;7.57;100.00;99382.38;5011107;28;20045;-63
2022/11/23 03:25:22;;;;;;;21.55;15.15;;;;;;;7.16;100.00;99306.47;5011106;28;20145;-61
2022/11/23 03:27:48;;;;;;;22.75;15.77;;;;;;;7.58;100.00;99374.47;5011101;28;20129;-60
2022/11/23 03:30:13;;;;;;;23.73;17.02;;;;;;;7.59;100.00;99381.38;5011216;28;20490;-62
2022/11/23 03:32:39;;;;;;;21.20;16.08;;;;;;;7.55;100.00;99371.13;5011030;28;20047;-63
2022/11/23 03:35:05;;;;;;;24.27;16.20;;;;;;;7.67;100.00;99392.41;5010971;28;20124;-61
2022/11/23 03:37:30;;;;;;;19.02;15.13;;;;;;;7.32;100.00;99323.22;5010900;28;20091;-63
2022/11/23 03:39:55;;;;;;;18.58;14.65;;;;;;;7.64;100.00;99360.25;5010035;28;20030;-62
2022/11/23 03:42:21;;;;;;;20.33;14.90;;;;;;;7.70;100.00;99388.78;5011084;28;20081;-63
2022/11/23 03:44:46;;;;;;;19.95;15.43;;;;;;;7.78;100.00;99381.44;5011047;28;20064;-61
2022/11/23 03:47:11;;;;;;;23.55;15.23;;;;;;;7.77;100.00;99382.34;5026104;28;20038;-61
2022/11/23 03:49:37;;;;;;;23.35;15.85;;;;;;;7.73;100.00;99375.56;5010695;28;20046;-61
2022/11/23 03:52:02;;;;;;;22.73;15.55;;;;;;;7.73;100.00;99381.66;5026069;28;20041;-62
2022/11/23 03:54:27;;;;;;;22.88;16.50;;;;;;;7.73;100.00;99381.66;5025946;28;20393;-63
2022/11/23 03:56:53;;;;;;;21.70;15.88;;;;;;;7.76;100.00;99378.88;5009034;28;20034;-62
2022/11/23 03:59:18;;;;;;;19.65;15.45;;;;;;;7.78;100.00;99381.44;5008625;28;20497;-61
2022/11/23 04:01:43;;;;;;;24.30;14.65;;;;;;;7.67;100.00;99352.25;5009882;28;20046;-62
2022/11/23 04:04:09;;;;;;;19.55;14.35;;;;;;;7.47;100.00;99326.94;5009008;28;20049;-62
2022/11/23 04:06:34;;;;;;;18.95;13.02;;;;;;;7.86;100.00;99381.94;5010131;28;20076;-61
2022/11/23 04:08:59;;;;;;;19.00;12.90;;;;;;;7.25;100.00;99277.28;5010332;28;20156;-61
2022/11/23 04:11:25;;;;;;;15.45;11.63;;;;;;;7.88;100.00;99382.75;5010312;28;20085;-60
2022/11/23 04:13:50;;;;;;;16.55;11.30;;;;;;;7.61;100.00;99329.81;5010606;28;20501;-62
2022/11/23 04:16:15;;;;;;;20.40;11.82;;;;;;;7.68;100.00;99336.47;5009392;28;20219;-62
2022/11/23 04:18:40;;;;;;;17.35;11.43;;;;;;;7.76;100.00;99357.91;5010696;28;20044;-62
2022/11/23 04:21:06;;;;;;;15.85;11.52;;;;;;;7.69;100.00;99329.47;5010572;28;20030;-63
2022/11/23 04:23:31;;;;;;;15.10;10.55;;;;;;;7.91;100.00;99379.97;5010524;28;20389;-62
2022/11/23 04:25:57;;;;;;;15.70;9.85;;;;;;;7.63;100.00;99333.19;5010342;28;20061;-60
2022/11/23 04:28:22;;;;;;;15.13;10.88;;;;;;;7.94;100.00;99388.53;5010390;28;20073;-63
2022/11/23 04:30:47;;;;;;;16.30;9.80;;;;;;;7.93;100.00;99386.84;5025317;28;20394;-61
2022/11/23 04:33:12;;;;;;;12.63;9.77;;;;;;;7.91;100.00;99372.09;5010387;28;20025;-62
2022/11/23 04:35:38;;;;;;;13.95;10.05;;;;;;;8.00;100.00;99386.59;4992095;28;20057;-61
2022/11/23 04:38:03;;;;;;;17.27;10.02;;;;;;;7.69;100.00;99322.44;5010214;28;20062;-60
2022/11/23 04:40:30;;;;;;;16.48;10.25;;;;;;;8.01;100.00;99372.53;5025586;28;20076;-61
2022/11/23 04:42:56;;;;;;;15.50;10.00;;;;;;;7.80;100.00;99353.41;5010219;28;20041;-61
2022/11/23 04:45:22;;;;;;;15.75;11.05;;;;;;;7.65;100.00;99322.63;5010083;28;20483;-62
2022/11/23 04:47:47;;;;;;;17.20;10.63;;;;;;;7.65;100.00;99322.63;5010329;28;20049;-61
2022/11/23 04:50:12;;;;;;;15.02;11.68;;;;;;;8.04;100.00;99385.50;5010117;28;20038;-63
2022/11/23 04:52:37;;;;;;;16.23;11.95;;;;;;;7.68;100.00;99312.88;5009875;28;20030;-62
2022/11/23 04:55:03;;;;;;;20.20;11.60;;;;;;;7.67;100.00;99319.06;5008674;28;20460;-62
2022/11/23 04:57:28;;;;;;;18.10;11.55;;;;;;;8.01;100.00;99376.03;5009653;28;20390;-61
2022/11/23 04:59:54;;;;;;;18.30;11.20;;;;;;;8.00;100.00;99376.94;5009738;28;20033;-63
2022/11/23 05:02:19;;;;;;;16.27;10.32;;;;;;;7.58;100.00;99326.47;5010047;28;20056;-61
2022/11/23 05:04:44;;;;;;;15.95;9.88;;;;;;;7.59;100.00;99310.69;5009969;28;20034;-62
2022/11/23 05:07:10;;;;;;;15.38;9.90;;;;;;;7.98;100.00;99388.41;5009885;28;20042;-60
2022/11/23 05:09:35;;;;;;;17.58;10.10;;;;;;;7.62;100.00;99333.25;5009651;28;20041;-60
2022/11/23 05:12:00;;;;;;;18.83;9.60;;;;;;;7.63;100.00;99329.72;5009544;28;20382;-62
2022/11/23 05:14:26;;;;;;;16.15;8.43;;;;;;;7.98;100.00;99384.03;5009578;28;20390;-63
2022/11/23 05:16:51;;;;;;;13.85;8.20;;;;;;;7.61;100.00;99324.56;5009755;28;20042;-63
2022/11/23 05:19:16;;;;;;;18.25;8.80;;;;;;;7.81;100.00;99355.09;5009806;28;20283;-63
2022/11/23 05:21:41;;;;;;;13.73;8.38;;;;;;;8.01;100.00;99393.50;5009831;28;20474;-63
2022/11/23 05:24:07;;;;;;;16.42;8.52;;;;;;;7.92;100.00;99390.38;5009810;28;20042;-64
2022/11/23 05:26:32;;;;;;;14.05;8.40;;;;;;;7.82;100.00;99381.22;5009567;28;20049;-60
2022/11/23 05:28:57;;;;;;;12.35;7.60;;;;;;;7.89;100.00;99398.38;5008428;28;20482;-62
2022/11/23 05:31:23;;;;;;;14.35;8.43;;;;;;;7.52;100.00;99332.81;5009668;28;20049;-61
2022/11/23 05:33:48;;;;;;;14.15;8.18;;;;;;;7.89;100.00;99390.53;5009295;28;20045;-64
2022/11/23 05:36:13;;;;;;;12.27;7.32;;;;;;;7.67;100.00;99360.97;5009188;28;20057;-62
2022/11/23 05:38:39;;;;;;;13.23;6.88;;;;;;;7.79;100.00;99381.34;5009243;28;20042;-62
2022/11/23 05:41:05;;;;;;;16.95;7.20;;;;;;;7.78;100.00;99386.69;5024325;28;20401;-61
2022/11/23 05:43:30;;;;;;;20.60;8.30;;;;;;;7.77;100.00;99395.44;5009359;28;20038;-60
2022/11/23 05:45:58;;;;;;;17.83;8.15;;;;;;;7.70;100.00;99405.34;5009223;28;20519;-63
2022/11/23 05:48:23;;;;;;;14.68;7.50;;;;;;;7.65;100.00;99409.06;5009200;28;20042;-61
2022/11/23 05:50:49;;;;;;;15.07;7.82;;;;;;;7.22;100.00;99339.38;5024494;28;20083;-63
2022/11/23 05:53:14;;;;;;;14.38;8.05;;;;;;;7.57;100.00;99411.16;5009093;28;20390;-61
2022/11/23 05:55:39;;;;;;;16.83;9.00;;;;;;;7.56;100.00;99406.88;5008979;28;20508;-62
2022/11/23 05:58:05;;;;;;;19.00;9.60;;;;;;;7.53;100.00;99405.19;5009234;28;20038;-61
2022/11/23 06:00:30;;;;;;;21.00;8.98;;;;;;;7.54;100.00;99403.44;5008913;28;20042;-64
2022/11/23 06:03:02;;;;;;;19.50;9.20;;;;;;;7.25;100.00;99344.47;5009084;28;20053;-63
2022/11/23 06:05:28;;;;;;;21.17;9.20;;;;;;;7.62;100.00;99394.34;5008996;28;20045;-63
2022/11/23 06:07:53;;;;;;;17.90;9.07;;;;;;;7.61;100.00;99386.56;5007744;28;20470;-61
2022/11/23 06:10:18;;;;;;;17.60;10.20;;;;;;;7.63;100.00;99392.56;5008855;28;20037;-62
2022/11/23 06:12:48;;;;;;;21.02;10.77;;;;;;;7.60;100.00;99396.19;5008951;28;20041;-61
2022/11/23 06:15:14;;;;;;;22.20;10.60;;;;;;;7.60;100.00;99395.31;4991714;28;20034;-62
2022/11/23 06:17:39;;;;;;;21.02;10.82;;;;;;;7.66;100.00;99403.78;5008691;28;20087;-62
2022/11/23 06:20:06;;;;;;;24.30;9.65;;;;;;;7.34;100.00;99344.09;5008452;28;20478;-62
2022/11/23 06:22:32;;;;;;;16.55;8.18;;;;;;;7.59;100.00;99388.41;5008019;28;20038;-60
2022/11/23 06:24:57;;;;;;;19.75;8.02;;;;;;;7.24;100.00;99340.16;5012168;28;20049;-60
2022/11/23 06:27:22;;;;;;;15.13;5.80;;;;;;;7.55;100.00;99400.78;5011985;28;20045;-61
2022/11/23 06:29:47;;;;;;;16.95;5.47;;;;;;;7.43;100.00;99384.72;5012147;28;20038;-62
2022/11/23 06:32:14;;;;;;;14.40;4.97;;;;;;;7.42;100.00;99403.97;5012354;28;20038;-63
2022/11/23 06:34:39;;;;;;;10.63;5.15;;;;;;;6.98;100.00;99343.00;5010871;28;20068;-61
2022/11/23 06:37:05;;;;;;;14.43;5.13;;;;;;;6.93;100.00;99344.97;5012340;28;20078;-64
2022/11/23 06:39:30;;;;;;;16.52;5.03;;;;;;;6.96;100.00;99347.47;5011700;28;20155;-63
2022/11/23 06:41:55;;;;;;;16.52;5.30;;;;;;;7.06;100.00;99385.44;5011866;28;20497;-60
2022/11/23 06:44:20;;;;;;;19.38;5.60;;;;;;;6.66;100.00;99339.09;5011848;28;20038;-61
2022/11/23 06:46:46;;;;;;;16.23;5.20;;;;;;;6.64;100.00;99359.22;5011599;28;20037;-63
2022/11/23 06:49:11;;;;;;;16.60;5.55;;;;;;;6.79;100.00;99419.63;5011758;28;20038;-61
2022/11/23 06:51:36;;;;;;;17.15;5.25;;;;;;;6.70;100.00;99413.91;5010557;28;20079;-61
2022/11/23 06:54:02;;;;;;;15.82;5.43;;;;;;;6.57;100.00;99407.44;5011825;28;20129;-63
2022/11/23 06:56:27;;;;;;;15.20;4.65;;;;;;;6.36;100.00;99384.75;5026700;28;20449;-63
2022/11/23 06:58:52;;;;;;;16.02;4.00;;;;;;;6.57;100.00;99428.34;5011742;28;20074;-60
2022/11/23 07:01:18;;;;;;;19.98;4.45;;;;;;;6.21;100.00;99367.91;5011767;28;20086;-61
2022/11/23 07:03:43;;;;;;;14.63;3.95;;;;;;;6.53;100.00;99419.78;5010373;28;20079;-62
2022/11/23 07:06:09;;;;;;;12.55;3.60;;;;;;;6.58;100.00;99425.69;5010325;28;20038;-63
2022/11/23 07:08:35;;;;;;;17.58;4.05;;;;;;;6.21;100.00;99375.72;5009538;28;20063;-65
2022/11/23 07:11:02;;;;;;;18.83;4.40;;;;;;;6.58;100.00;99437.91;5011137;28;20029;-62
2022/11/23 07:13:27;;;;;;;18.52;3.72;;;;;;;6.51;100.00;99418.16;5003728;28;20266;-66
2022/11/23 07:15:52;;;;;;;15.52;3.15;;;;;;;6.68;100.00;99432.25;4991874;28;20046;-64
2022/11/23 07:18:18;;;;;;;15.52;3.55;;;;;;;6.82;100.00;99436.97;4999048;28;20050;-64
2022/11/23 07:20:43;;;;;;;17.98;3.13;;;;;;;6.87;100.00;99440.22;5010975;28;20033;-63
2022/11/23 07:23:10;;;;;;;16.92;4.70;;;;;;;6.96;100.00;99450.34;5011068;28;20037;-64
2022/11/23 07:25:37;;;;;;;20.35;4.32;;;;;;;7.00;100.00;99441.47;4998829;28;20122;-65
2022/11/23 07:28:04;;;;;;;14.70;3.15;;;;;;;7.05;100.00;99449.97;4990501;28;20503;-65
2022/11/23 07:30:30;;;;;;;13.48;3.58;;;;;;;7.11;100.00;99447.13;4998934;28;20066;-64
2022/11/23 07:33:00;;;;;;;20.33;3.90;;;;;;;7.14;100.00;99448.75;5011615;28;20046;-62
2022/11/23 07:35:25;;;;;;;14.07;3.65;;;;;;;6.71;100.00;99377.22;5007813;28;20061;-64
2022/11/23 07:37:51;;;;;;;14.15;4.03;;;;;;;7.03;100.00;99438.72;5011365;28;20398;-61
2022/11/23 07:40:16;;;;;;;16.10;3.55;;;;;;;6.83;100.00;99399.41;5009919;28;20069;-62
2022/11/23 07:42:41;;;;;;;13.20;3.25;;;;;;;7.15;100.00;99435.59;5011459;28;20046;-62
2022/11/23 07:45:08;;;;;;;15.00;3.88;;;;;;;7.22;100.00;99444.06;5009979;28;20129;-61
2022/11/23 07:47:33;;;;;;;20.63;4.32;;;;;;;7.28;100.00;99449.03;5011010;28;20505;-63
2022/11/23 07:49:58;;;;;;;15.13;3.65;;;;;;;7.43;100.00;99468.50;4993345;28;20117;-62
2022/11/23 07:52:24;;;;;;;18.83;3.38;;;;;;;7.37;100.00;99459.13;5011006;28;20125;-61
2022/11/23 07:54:50;;;;;;;19.75;3.55;;;;;;;7.53;100.00;99472.44;5009706;28;20497;-64
2022/11/23 07:57:15;;;;;;;18.58;4.07;;;;;;;7.27;100.00;99422.00;5009467;28;20450;-62
2022/11/23 07:59:41;;;;;;;19.77;3.95;;;;;;;7.60;100.00;99466.88;5010806;28;20038;-62
2022/11/23 08:02:09;;;;;;;13.93;3.20;;;;;;;7.61;100.00;99463.38;5010577;28;20029;-62
2022/11/23 08:04:34;;;;;;;11.05;3.03;;;;;;;7.75;100.00;99475.88;5009670;28;20038;-63
2022/11/23 08:07:01;;;;;;;16.15;3.33;;;;;;;7.78;100.00;99473.13;5009330;28;20098;-66
2022/11/23 08:09:26;;;;;;;13.10;3.20;;;;;;;7.72;100.00;99455.91;5008531;28;20481;-64
2022/11/23 08:11:52;;;;;;;18.90;3.40;;;;;;;7.83;100.00;99474.63;5009692;28;20091;-61
2022/11/23 08:14:17;;;;;;;15.15;3.70;;;;;;;7.85;100.00;99466.72;5007727;28;20103;-63
2022/11/23 08:16:42;;;;;;;17.90;3.88;;;;;;;7.95;100.00;99488.97;4981185;28;20034;-61
2022/11/23 08:19:08;;;;;;;13.20;3.33;;;;;;;7.61;100.00;99438.94;5005368;28;20065;-61
2022/11/23 08:21:33;;;;;;;14.32;3.22;;;;;;;7.99;100.00;99505.41;5005393;28;20042;-63
2022/11/23 08:23:58;;;;;;;15.63;3.17;;;;;;;7.87;100.00;99476.19;4989084;28;20039;-60
2022/11/23 08:26:23;;;;;;;17.90;3.38;;;;;;;7.92;100.00;99500.44;4988787;28;20062;-63
2022/11/23 08:28:49;;;;;;;19.05;3.33;;;;;;;7.57;100.00;99429.50;4988730;28;20063;-64
2022/11/23 08:31:14;;;;;;;14.93;2.88;;;;;;;7.98;100.00;99483.59;4988652;28;20037;-61
2022/11/23 08:33:40;;;;;;;10.80;3.40;;;;;;;7.68;100.00;99430.75;4990050;28;20555;-61
2022/11/23 08:36:06;;;;;;;13.20;3.85;;;;;;;7.71;100.00;99438.47;5006912;28;20064;-64
2022/11/23 08:38:33;;;;;;;13.10;3.53;;;;;;;7.88;100.00;99463.97;5008534;28;20058;-61
2022/11/23 08:40:59;;;;;;;18.38;3.13;;;;;;;8.10;100.00;99500.56;5023664;28;20044;-63
2022/11/23 08:43:25;;;;;;;11.10;2.75;;;;;;;8.04;100.00;99495.56;5007227;28;20352;-60
2022/11/23 08:45:54;;;;;;;18.73;3.53;;;;;;;7.83;100.00;99444.94;5007641;28;20469;-62
2022/11/23 08:48:20;;;;;;;13.40;3.45;;;;;;;7.87;100.00;99439.53;5006914;28;20478;-61
2022/11/23 08:50:45;;;;;;;14.95;3.60;;;;;;;8.27;100.00;99492.78;5008384;28;20138;-65
2022/11/23 08:53:10;;;;;;;13.25;3.22;;;;;;;8.33;100.00;99485.53;5007923;28;20050;-64
2022/11/23 08:55:36;;;;;;;12.70;3.40;;;;;;;8.38;100.00;99490.56;5008202;28;20095;-62
2022/11/23 08:58:01;;;;;;;21.25;4.95;;;;;;;8.51;100.00;99493.50;5006542;28;20201;-68
2022/11/23 09:00:27;;;;;;;13.73;3.58;;;;;;;8.49;100.00;99454.25;5008112;28;20038;-64
2022/11/23 09:02:52;;;;;;;17.25;4.32;;;;;;;8.68;100.00;99480.47;4989899;28;20044;-66
2022/11/23 09:05:18;;;;;;;10.80;3.53;;;;;;;8.32;100.00;99399.94;5007708;28;20022;-62
2022/11/23 09:07:43;;;;;;;11.30;2.90;;;;;;;8.82;100.00;99459.69;5008038;28;20030;-63
2022/11/23 09:10:08;;;;;;;16.55;3.60;;;;;;;8.65;100.00;99441.25;5005684;28;20079;-62
2022/11/23 09:12:34;;;;;;;16.25;3.35;;;;;;;8.23;100.00;99402.13;4988641;28;20034;-63
2022/11/23 09:14:59;;;;;;;16.55;3.40;;;;;;;8.54;100.00;99460.13;4986950;28;20163;-66
2022/11/23 09:17:24;;;;;;;15.45;4.43;;;;;;;7.97;100.00;99382.31;4988152;28;20068;-64
2022/11/23 09:19:50;;;;;;;15.65;4.38;;;;;;;7.92;100.00;99385.16;4986853;28;20062;-65
2022/11/23 09:22:15;;;;;;;14.45;3.50;;;;;;;8.13;100.00;99427.88;4987490;28;20394;-62
2022/11/23 09:24:40;;;;;;;18.38;4.07;;;;;;;7.75;100.00;99376.34;4988251;28;20039;-62
2022/11/23 09:27:06;;;;;;;11.07;3.75;;;;;;;7.63;100.00;99358.53;4988074;28;20124;-62
2022/11/23 09:29:32;;;;;;;17.50;3.78;;;;;;;7.65;100.00;99377.63;4988214;28;20461;-65
2022/11/23 09:31:57;;;;;;;8.68;2.97;;;;;;;7.85;100.00;99411.69;4988209;28;20065;-63
2022/11/23 09:34:22;;;;;;;14.35;3.97;;;;;;;7.49;100.00;99350.44;4986887;28;20046;-65
2022/11/23 09:36:47;;;;;;;17.50;4.07;;;;;;;7.71;100.00;99390.47;4987714;28;20062;-67
2022/11/23 09:39:13;;;;;;;14.15;3.75;;;;;;;7.78;100.00;99411.09;4988241;28;20491;-61
2022/11/23 09:42:00;;;;;;;10.90;3.65;;;;;;;7.81;100.00;99410.97;4988295;28;20034;-63
2022/11/23 09:44:48;;;;;;;14.45;3.45;;;;;;;7.79;100.00;99404.94;4988239;28;20504;-64
2022/11/23 09:47:13;;;;;;;11.13;3.38;;;;;;;7.76;100.00;99417.34;4988372;28;20039;-64
2022/11/23 09:49:48;;;;;;;14.05;4.15;;;;;;;7.74;100.00;99424.38;4987662;28;20044;-62
2022/11/23 09:52:17;;;;;;;12.18;2.97;;;;;;;7.35;100.00;99351.84;4986833;28;20031;-64
2022/11/23 09:54:44;;;;;;;14.50;3.08;;;;;;;7.55;100.00;99394.69;4991765;28;20030;-64
2022/11/23 09:57:14;;;;;;;16.67;3.75;;;;;;;7.66;100.00;99418.63;5006241;28;20041;-68
2022/11/23 09:59:51;;;;;;;18.17;4.20;;;;;;;7.71;100.00;99427.13;5010039;28;20037;-62
2022/11/23 10:02:22;;;;;;;15.43;3.28;;;;;;;7.69;100.00;99416.75;5009828;28;20034;-65
2022/11/23 10:04:48;;;;;;;13.55;3.53;;;;;;;7.78;100.00;99424.19;5009736;28;20045;-64
2022/11/23 10:07:16;;;;;;;25.70;5.13;;;;;;;7.90;100.00;99441.16;5004300;28;20080;-66
2022/11/23 10:09:56;;;;;;;15.23;3.50;;;;;;;7.61;100.00;99384.81;5006521;28;20107;-65
2022/11/23 10:12:40;;;;;;;10.68;3.60;;;;;;;7.96;100.00;99434.78;4991572;28;20030;-69
2022/11/23 10:15:16;;;;;;;16.05;3.10;;;;;;;7.56;100.00;99359.72;4992896;28;20084;-67
2022/11/23 10:18:10;;;;;;;18.73;3.65;;;;;;;7.69;100.00;99389.69;4989845;28;20045;-63
2022/11/23 10:20:41;;;;;;;13.07;3.30;;;;;;;7.81;100.00;99391.78;4990118;28;20038;-62
2022/11/23 10:23:29;;;;;;;9.85;3.20;;;;;;;8.05;100.00;99406.41;4991274;28;20048;-63
2022/11/23 10:25:55;;;;;;;11.88;3.67;;;;;;;8.23;100.00;99431.78;4991216;28;20395;-64
2022/11/23 10:28:21;;;;;;;10.38;3.05;;;;;;;8.32;100.00;99443.66;4989559;28;20043;-62
2022/11/23 10:31:16;;;;;;;15.15;4.15;;;;;;;8.04;100.00;99381.13;4991061;28;20038;-61
2022/11/23 10:33:49;;;;;;;17.85;4.25;;;;;;;8.44;100.00;99449.19;4991231;28;20493;-61
2022/11/23 10:36:16;;;;;;;12.68;3.58;;;;;;;8.14;100.00;99403.41;4989691;28;20145;-65
2022/11/23 10:38:41;;;;;;;13.52;4.07;;;;;;;8.14;100.00;99390.28;4993868;28;20050;-65
2022/11/23 10:41:12;;;;;;;19.83;5.07;;;;;;;8.17;100.00;99399.78;4999986;28;20531;-62
2022/11/23 10:43:43;;;;;;;9.32;4.10;;;;;;;8.17;100.00;99384.88;5010041;28;20117;-64
2022/11/23 10:46:23;;;;;;;;;;;;;;;8.60;100.00;99445.88;5009957;28;20030;-66
2022/11/23 10:48:50;;;;;;;14.60;4.13;;;;;;;8.71;100.00;99441.84;5010337;28;20192;-63
2022/11/23 10:51:15;;;;;;;13.68;4.22;;;;;;;8.67;100.00;99421.06;5009212;28;20030;-64
2022/11/23 10:53:41;;;;;;;16.05;4.38;;;;;;;8.45;100.00;99376.63;5009327;28;20527;-66
2022/11/23 10:56:11;;;;;;;15.05;4.68;;;;;;;8.75;100.00;99414.53;5010230;28;20125;-63
2022/11/23 10:58:44;;;;;;;14.15;4.45;;;;;;;8.52;100.00;99401.66;5008955;28;20099;-62
2022/11/23 11:01:16;;;;;;;13.52;4.43;;;;;;;8.34;100.00;99357.94;5009195;28;20049;-63
2022/11/23 11:03:41;;;;;;;14.13;4.97;;;;;;;8.60;100.00;99401.28;5009240;28;20107;-66
2022/11/23 11:06:07;;;;;;;15.55;4.95;;;;;;;8.34;100.00;99348.31;5010953;28;20525;-67
2022/11/23 11:08:35;;;;;;;15.65;4.70;;;;;;;8.70;100.00;99392.91;5009142;28;20034;-69
2022/11/23 11:11:02;;;;;;;10.88;3.55;;;;;;;8.67;100.00;99385.19;5008639;28;20516;-66
2022/11/23 11:13:32;;;;;;;14.05;4.28;;;;;;;8.55;100.00;99379.69;5010085;28;20113;-66
2022/11/23 11:16:21;;;;;;;9.90;3.50;;;;;;;8.51;100.00;99384.22;5005294;28;20034;-63
2022/11/23 11:18:46;;;;;;;10.38;3.58;;;;;;;8.12;100.00;99321.34;5009217;28;20044;-65
2022/11/23 11:21:21;;;;;;;12.18;4.38;;;;;;;8.39;100.00;99376.91;5009569;28;20037;-66